createdAt,value
2018-12-26T00:00:44.422Z,1024.20
2018-12-26T00:01:45.126Z,1024.19
2018-12-26T00:02:46.872Z,1024.15
2018-12-26T00:03:47.176Z,1024.13
2018-12-26T00:04:47.765Z,1024.09
2018-12-26T00:05:48.478Z,1024.11
2018-12-26T00:06:48.944Z,1024.08
2018-12-26T00:07:49.539Z,1024.05
2018-12-26T00:08:50.134Z,1024.05
2018-12-26T00:09:50.725Z,1024.06
2018-12-26T00:10:51.308Z,1024.09
2018-12-26T00:11:51.901Z,1024.04
2018-12-26T00:12:52.495Z,1024.06
2018-12-26T00:13:53.088Z,1024.11
2018-12-26T00:14:53.673Z,1024.09
2018-12-26T00:15:54.268Z,1024.12
2018-12-26T00:16:54.851Z,1024.10
2018-12-26T00:17:55.441Z,1024.08
2018-12-26T00:18:56.033Z,1024.07
2018-12-26T00:19:56.724Z,1024.06
2018-12-26T00:20:57.239Z,1024.03
2018-12-26T00:21:57.846Z,1024.04
2018-12-26T00:22:58.424Z,1024.06
2018-12-26T00:23:59.141Z,1024.06
2018-12-26T00:24:59.605Z,1024.04
2018-12-26T00:26:01.730Z,1024.04
2018-12-26T00:27:00.783Z,1024.05
2018-12-26T00:28:01.377Z,1024.06
2018-12-26T00:29:01.969Z,1024.01
2018-12-26T00:30:02.562Z,1023.98
2018-12-26T00:31:03.157Z,1024.02
2018-12-26T00:32:03.743Z,1024.05
2018-12-26T00:33:04.334Z,1024.01
2018-12-26T00:34:04.928Z,1023.99
2018-12-26T00:35:05.522Z,1024.04
2018-12-26T00:36:06.107Z,1023.95
2018-12-26T00:37:06.698Z,1023.95
2018-12-26T00:38:07.284Z,1023.97
2018-12-26T00:39:07.877Z,1023.96
2018-12-26T00:40:08.467Z,1023.99
2018-12-26T00:41:09.062Z,1023.97
2018-12-26T00:42:09.650Z,1023.99
2018-12-26T00:43:10.247Z,1024.02
2018-12-26T00:44:10.836Z,1023.99
2018-12-26T00:45:11.430Z,1023.98
2018-12-26T00:46:12.024Z,1024.01
2018-12-26T00:47:12.614Z,1024.03
2018-12-26T00:48:13.211Z,1024.02
2018-12-26T00:49:13.800Z,1023.98
2018-12-26T00:50:14.383Z,1023.97
2018-12-26T00:51:14.979Z,1023.97
2018-12-26T00:52:15.582Z,1023.97
2018-12-26T00:53:16.165Z,1023.99
2018-12-26T00:54:16.756Z,1023.98
2018-12-26T00:55:17.351Z,1024.02
2018-12-26T00:56:17.941Z,1023.99
2018-12-26T00:57:18.537Z,1023.99
2018-12-26T00:58:19.120Z,1024.00
2018-12-26T00:59:19.711Z,1023.97
2018-12-26T01:01:04.509Z,1023.99
2018-12-26T01:02:05.130Z,1023.95
2018-12-26T01:03:05.725Z,1023.95
2018-12-26T01:04:06.323Z,1023.92
2018-12-26T01:05:06.918Z,1023.93
2018-12-26T01:06:07.513Z,1023.91
2018-12-26T01:07:08.111Z,1023.92
2018-12-26T01:08:08.706Z,1023.89
2018-12-26T01:09:09.304Z,1023.89
2018-12-26T01:10:09.903Z,1023.92
2018-12-26T01:11:10.522Z,1023.93
2018-12-26T01:12:11.117Z,1023.95
2018-12-26T01:13:11.715Z,1023.96
2018-12-26T01:14:12.313Z,1023.95
2018-12-26T01:15:12.911Z,1023.91
2018-12-26T01:16:13.505Z,1023.92
2018-12-26T01:17:14.101Z,1023.87
2018-12-26T01:18:14.697Z,1023.92
2018-12-26T01:19:15.293Z,1023.89
2018-12-26T01:20:15.893Z,1023.91
2018-12-26T01:21:16.489Z,1023.90
2018-12-26T01:22:17.087Z,1023.91
2018-12-26T01:23:17.683Z,1023.90
2018-12-26T01:24:18.278Z,1023.94
2018-12-26T01:25:18.875Z,1023.95
2018-12-26T01:26:19.565Z,1023.93
2018-12-26T01:27:20.082Z,1023.90
2018-12-26T01:28:20.679Z,1023.87
2018-12-26T01:29:21.275Z,1023.88
2018-12-26T01:30:21.896Z,1023.86
2018-12-26T01:31:22.491Z,1023.84
2018-12-26T01:32:23.086Z,1023.82
2018-12-26T01:33:23.683Z,1023.81
2018-12-26T01:34:24.283Z,1023.87
2018-12-26T01:35:24.877Z,1023.86
2018-12-26T01:36:25.475Z,1023.84
2018-12-26T01:37:26.071Z,1023.80
2018-12-26T01:38:26.668Z,1023.84
2018-12-26T01:39:27.268Z,1023.82
2018-12-26T01:40:27.861Z,1023.81
2018-12-26T01:41:28.458Z,1023.80
2018-12-26T01:42:29.057Z,1023.77
2018-12-26T01:43:29.653Z,1023.79
2018-12-26T01:44:30.249Z,1023.83
2018-12-26T01:45:30.845Z,1023.81
2018-12-26T01:46:31.440Z,1023.80
2018-12-26T01:47:32.059Z,1023.81
2018-12-26T01:48:32.655Z,1023.74
2018-12-26T01:49:33.251Z,1023.74
2018-12-26T01:50:33.851Z,1023.73
2018-12-26T01:51:34.467Z,1023.68
2018-12-26T01:52:35.063Z,1023.63
2018-12-26T01:53:35.681Z,1023.59
2018-12-26T01:54:36.280Z,1023.58
2018-12-26T01:55:36.876Z,1023.63
2018-12-26T01:56:37.476Z,1023.64
2018-12-26T01:57:38.068Z,1023.63
2018-12-26T01:58:38.666Z,1023.65
2018-12-26T01:59:39.316Z,1023.69
2018-12-26T02:00:39.857Z,1023.62
2018-12-26T02:01:40.458Z,1023.63
2018-12-26T02:02:41.074Z,1023.64
2018-12-26T02:03:41.671Z,1023.64
2018-12-26T02:04:42.268Z,1023.59
2018-12-26T02:05:42.871Z,1023.58
2018-12-26T02:06:43.464Z,1023.55
2018-12-26T02:07:44.059Z,1023.55
2018-12-26T02:08:44.677Z,1023.51
2018-12-26T02:09:45.275Z,1023.53
2018-12-26T02:10:45.873Z,1023.48
2018-12-26T02:11:46.468Z,1023.48
2018-12-26T02:12:47.063Z,1023.48
2018-12-26T02:13:47.660Z,1023.46
2018-12-26T02:14:48.261Z,1023.47
2018-12-26T02:15:48.874Z,1023.43
2018-12-26T02:16:49.470Z,1023.39
2018-12-26T02:17:50.066Z,1023.38
2018-12-26T02:18:50.661Z,1023.39
2018-12-26T02:19:51.263Z,1023.36
2018-12-26T02:20:51.857Z,1023.37
2018-12-26T02:21:52.454Z,1023.36
2018-12-26T02:22:53.049Z,1023.40
2018-12-26T02:23:53.666Z,1023.39
2018-12-26T02:24:54.268Z,1023.39
2018-12-26T02:25:54.884Z,1023.43
2018-12-26T02:26:55.502Z,1023.37
2018-12-26T02:27:56.098Z,1023.39
2018-12-26T02:28:56.695Z,1023.40
2018-12-26T02:29:57.318Z,1023.37
2018-12-26T02:30:57.929Z,1023.34
2018-12-26T02:31:58.529Z,1023.36
2018-12-26T02:32:59.134Z,1023.38
2018-12-26T02:33:59.723Z,1023.34
2018-12-26T02:35:00.417Z,1023.34
2018-12-26T02:36:00.954Z,1023.33
2018-12-26T02:37:01.549Z,1023.30
2018-12-26T02:38:02.152Z,1023.35
2018-12-26T02:39:02.743Z,1023.34
2018-12-26T02:40:03.365Z,1023.30
2018-12-26T02:41:03.956Z,1023.32
2018-12-26T02:42:04.560Z,1023.32
2018-12-26T02:43:05.173Z,1023.31
2018-12-26T02:44:05.770Z,1023.28
2018-12-26T02:45:06.365Z,1023.30
2018-12-26T02:46:06.984Z,1023.24
2018-12-26T02:47:07.636Z,1023.27
2018-12-26T02:48:08.212Z,1023.23
2018-12-26T02:49:08.815Z,1023.20
2018-12-26T02:50:09.414Z,1023.18
2018-12-26T02:51:10.012Z,1023.15
2018-12-26T02:52:10.641Z,1023.22
2018-12-26T02:53:11.229Z,1023.17
2018-12-26T02:54:11.826Z,1023.19
2018-12-26T02:55:12.424Z,1023.17
2018-12-26T02:56:13.023Z,1023.13
2018-12-26T02:57:13.639Z,1023.16
2018-12-26T02:58:14.234Z,1023.15
2018-12-26T02:59:14.843Z,1023.15
2018-12-26T03:00:15.450Z,1023.12
2018-12-26T03:01:16.046Z,1023.16
2018-12-26T03:02:16.642Z,1023.17
2018-12-26T03:03:17.242Z,1023.15
2018-12-26T03:04:17.839Z,1023.14
2018-12-26T03:05:18.435Z,1023.11
2018-12-26T03:06:19.031Z,1023.12
2018-12-26T03:07:19.650Z,1023.12
2018-12-26T03:08:20.249Z,1023.03
2018-12-26T03:09:20.845Z,1023.04
2018-12-26T03:10:21.441Z,1023.04
2018-12-26T03:11:22.038Z,1023.04
2018-12-26T03:12:22.633Z,1023.06
2018-12-26T03:13:23.252Z,1023.08
2018-12-26T03:14:23.870Z,1023.09
2018-12-26T03:15:24.466Z,1023.10
2018-12-26T03:16:25.065Z,1023.09
2018-12-26T03:17:25.662Z,1023.14
2018-12-26T03:18:26.326Z,1023.11
2018-12-26T03:19:26.859Z,1023.13
2018-12-26T03:20:27.456Z,1023.15
2018-12-26T03:21:28.069Z,1023.15
2018-12-26T03:22:28.666Z,1023.14
2018-12-26T03:23:29.263Z,1023.10
2018-12-26T03:24:29.860Z,1023.12
2018-12-26T03:25:30.455Z,1023.08
2018-12-26T03:26:31.078Z,1023.09
2018-12-26T03:27:31.672Z,1023.05
2018-12-26T03:28:32.269Z,1023.04
2018-12-26T03:29:32.866Z,1023.03
2018-12-26T03:30:33.464Z,1023.06
2018-12-26T03:31:34.062Z,1023.05
2018-12-26T03:32:34.680Z,1023.08
2018-12-26T03:33:35.274Z,1023.10
2018-12-26T03:34:35.872Z,1023.11
2018-12-26T03:35:36.474Z,1023.13
2018-12-26T03:36:37.068Z,1023.09
2018-12-26T03:37:37.663Z,1023.10
2018-12-26T03:38:38.260Z,1023.09
2018-12-26T03:39:38.855Z,1023.08
2018-12-26T03:40:39.452Z,1023.07
2018-12-26T03:41:40.048Z,1023.00
2018-12-26T03:42:40.646Z,1022.99
2018-12-26T03:43:41.266Z,1022.99
2018-12-26T03:44:41.889Z,1022.98
2018-12-26T03:45:42.457Z,1023.02
2018-12-26T03:46:43.058Z,1023.01
2018-12-26T03:47:43.653Z,1023.02
2018-12-26T03:48:44.249Z,1023.05
2018-12-26T03:49:44.844Z,1023.04
2018-12-26T03:50:45.440Z,1023.08
2018-12-26T03:51:46.040Z,1023.08
2018-12-26T03:52:46.652Z,1023.09
2018-12-26T03:53:47.248Z,1023.11
2018-12-26T03:54:47.845Z,1023.14
2018-12-26T03:55:48.443Z,1023.11
2018-12-26T03:56:49.036Z,1023.12
2018-12-26T03:57:49.634Z,1023.09
2018-12-26T03:58:50.233Z,1023.12
2018-12-26T03:59:50.828Z,1023.07
2018-12-26T04:00:51.422Z,1023.07
2018-12-26T04:01:52.019Z,1023.06
2018-12-26T04:02:52.615Z,1023.03
2018-12-26T04:03:53.212Z,1023.05
2018-12-26T04:04:53.809Z,1023.07
2018-12-26T04:05:54.409Z,1023.05
2018-12-26T04:06:55.032Z,1023.03
2018-12-26T04:07:55.644Z,1023.03
2018-12-26T04:08:56.254Z,1023.02
2018-12-26T04:09:56.837Z,1023.02
2018-12-26T04:10:57.433Z,1023.00
2018-12-26T04:11:58.030Z,1022.93
2018-12-26T04:12:58.627Z,1022.95
2018-12-26T04:13:59.224Z,1022.90
2018-12-26T04:14:59.821Z,1022.91
2018-12-26T04:16:00.418Z,1022.86
2018-12-26T04:17:01.012Z,1022.81
2018-12-26T04:18:01.615Z,1022.84
2018-12-26T04:19:02.205Z,1022.84
2018-12-26T04:20:02.832Z,1022.82
2018-12-26T04:21:03.419Z,1022.79
2018-12-26T04:22:04.016Z,1022.80
2018-12-26T04:23:04.633Z,1022.79
2018-12-26T04:24:05.229Z,1022.80
2018-12-26T04:25:05.828Z,1022.85
2018-12-26T04:26:06.423Z,1022.79
2018-12-26T04:27:15.331Z,1022.80
2018-12-26T04:28:08.609Z,1022.81
2018-12-26T04:29:09.205Z,1022.84
2018-12-26T04:30:09.804Z,1022.87
2018-12-26T04:31:10.401Z,1022.91
2018-12-26T04:32:10.997Z,1022.90
2018-12-26T04:33:11.614Z,1022.90
2018-12-26T04:34:12.213Z,1022.87
2018-12-26T04:35:12.830Z,1022.87
2018-12-26T04:36:13.426Z,1022.83
2018-12-26T04:37:14.022Z,1022.85
2018-12-26T04:38:14.620Z,1022.84
2018-12-26T04:39:15.219Z,1022.85
2018-12-26T04:40:15.815Z,1022.87
2018-12-26T04:41:16.411Z,1022.84
2018-12-26T04:42:17.030Z,1022.86
2018-12-26T04:43:17.649Z,1022.88
2018-12-26T04:44:18.266Z,1022.88
2018-12-26T04:45:18.862Z,1022.85
2018-12-26T04:46:19.459Z,1022.87
2018-12-26T04:47:20.059Z,1022.88
2018-12-26T04:48:20.651Z,1022.89
2018-12-26T04:49:21.248Z,1022.85
2018-12-26T04:50:21.848Z,1022.84
2018-12-26T04:51:22.443Z,1022.85
2018-12-26T04:52:23.039Z,1022.86
2018-12-26T04:53:23.634Z,1022.83
2018-12-26T04:54:24.231Z,1022.86
2018-12-26T04:55:24.827Z,1022.80
2018-12-26T04:56:25.407Z,1022.84
2018-12-26T04:57:25.998Z,1022.84
2018-12-26T04:58:26.588Z,1022.83
2018-12-26T04:59:27.173Z,1022.82
2018-12-26T05:00:27.768Z,1022.82
2018-12-26T05:01:28.356Z,1022.74
2018-12-26T05:02:28.941Z,1022.75
2018-12-26T05:03:29.521Z,1022.75
2018-12-26T05:04:30.105Z,1022.76
2018-12-26T05:05:30.699Z,1022.77
2018-12-26T05:06:31.289Z,1022.79
2018-12-26T05:07:31.875Z,1022.75
2018-12-26T05:08:32.464Z,1022.82
2018-12-26T05:09:33.055Z,1022.78
2018-12-26T05:10:33.643Z,1022.78
2018-12-26T05:11:34.232Z,1022.77
2018-12-26T05:12:34.814Z,1022.78
2018-12-26T05:13:35.403Z,1022.80
2018-12-26T05:14:35.996Z,1022.79
2018-12-26T05:15:36.584Z,1022.78
2018-12-26T05:16:37.181Z,1022.80
2018-12-26T05:17:37.763Z,1022.79
2018-12-26T05:18:38.345Z,1022.80
2018-12-26T05:19:38.937Z,1022.79
2018-12-26T05:20:39.524Z,1022.77
2018-12-26T05:21:40.119Z,1022.77
2018-12-26T05:22:40.698Z,1022.79
2018-12-26T05:23:41.292Z,1022.80
2018-12-26T05:24:41.877Z,1022.77
2018-12-26T05:25:42.471Z,1022.79
2018-12-26T05:26:43.066Z,1022.77
2018-12-26T05:27:43.656Z,1022.77
2018-12-26T05:28:44.248Z,1022.80
2018-12-26T05:29:44.836Z,1022.82
2018-12-26T05:30:45.417Z,1022.81
2018-12-26T05:31:46.005Z,1022.77
2018-12-26T05:32:46.588Z,1022.81
2018-12-26T05:33:47.185Z,1022.77
2018-12-26T05:34:47.771Z,1022.79
2018-12-26T05:35:48.362Z,1022.76
2018-12-26T05:36:48.955Z,1022.76
2018-12-26T05:37:49.554Z,1022.77
2018-12-26T05:38:50.147Z,1022.78
2018-12-26T05:39:50.745Z,1022.79
2018-12-26T05:40:51.332Z,1022.76
2018-12-26T05:41:51.921Z,1022.77
2018-12-26T05:42:52.526Z,1022.72
2018-12-26T05:43:53.098Z,1022.73
2018-12-26T05:44:53.691Z,1022.74
2018-12-26T05:45:54.280Z,1022.78
2018-12-26T05:46:54.870Z,1022.75
2018-12-26T05:47:55.462Z,1022.78
2018-12-26T05:48:56.046Z,1022.73
2018-12-26T05:49:56.734Z,1022.76
2018-12-26T05:50:57.235Z,1022.80
2018-12-26T05:51:57.827Z,1022.78
2018-12-26T05:52:58.422Z,1022.77
2018-12-26T05:53:59.015Z,1022.77
2018-12-26T05:54:59.610Z,1022.73
2018-12-26T05:56:00.199Z,1022.78
2018-12-26T05:57:00.784Z,1022.73
2018-12-26T05:58:01.376Z,1022.79
2018-12-26T05:59:01.966Z,1022.80
2018-12-26T06:00:02.551Z,1022.80
2018-12-26T06:01:03.141Z,1022.81
2018-12-26T06:02:03.731Z,1022.85
2018-12-26T06:03:04.319Z,1022.85
2018-12-26T06:04:04.909Z,1022.85
2018-12-26T06:05:05.505Z,1022.82
2018-12-26T06:06:06.103Z,1022.89
2018-12-26T06:07:06.692Z,1022.92
2018-12-26T06:08:07.282Z,1022.89
2018-12-26T06:09:07.867Z,1022.92
2018-12-26T06:10:08.455Z,1022.90
2018-12-26T06:11:09.038Z,1022.91
2018-12-26T06:12:11.497Z,1022.93
2018-12-26T06:13:10.279Z,1022.95
2018-12-26T06:14:10.806Z,1022.91
2018-12-26T06:15:11.400Z,1022.93
2018-12-26T06:16:11.992Z,1022.93
2018-12-26T06:17:12.586Z,1022.93
2018-12-26T06:18:13.179Z,1022.92
2018-12-26T06:19:13.771Z,1022.89
2018-12-26T06:20:14.362Z,1022.91
2018-12-26T06:21:15.002Z,1022.89
2018-12-26T06:22:15.613Z,1022.88
2018-12-26T06:23:16.181Z,1022.90
2018-12-26T06:24:16.777Z,1022.87
2018-12-26T06:25:17.370Z,1022.91
2018-12-26T06:26:17.950Z,1022.91
2018-12-26T06:27:18.544Z,1022.87
2018-12-26T06:28:19.126Z,1022.83
2018-12-26T06:29:19.710Z,1022.85
2018-12-26T06:30:20.304Z,1022.86
2018-12-26T06:31:20.893Z,1022.89
2018-12-26T06:32:21.475Z,1022.88
2018-12-26T06:33:22.065Z,1022.91
2018-12-26T06:34:22.653Z,1022.88
2018-12-26T06:35:23.235Z,1022.86
2018-12-26T06:36:23.818Z,1022.89
2018-12-26T06:37:24.409Z,1022.86
2018-12-26T06:38:25.003Z,1022.87
2018-12-26T06:39:25.594Z,1022.85
2018-12-26T06:40:26.185Z,1022.84
2018-12-26T06:41:26.779Z,1022.88
2018-12-26T06:42:27.370Z,1022.82
2018-12-26T06:43:27.965Z,1022.88
2018-12-26T06:44:28.555Z,1022.88
2018-12-26T06:45:29.155Z,1022.87
2018-12-26T06:46:29.738Z,1022.89
2018-12-26T06:47:30.329Z,1022.84
2018-12-26T06:48:30.913Z,1022.82
2018-12-26T06:49:31.505Z,1022.79
2018-12-26T06:50:32.098Z,1022.82
2018-12-26T06:51:32.688Z,1022.79
2018-12-26T06:52:33.275Z,1022.78
2018-12-26T06:53:33.865Z,1022.81
2018-12-26T06:54:34.457Z,1022.80
2018-12-26T06:55:35.041Z,1022.89
2018-12-26T06:56:35.633Z,1022.87
2018-12-26T06:57:36.224Z,1022.88
2018-12-26T06:58:36.809Z,1022.89
2018-12-26T06:59:37.392Z,1022.92
2018-12-26T07:00:37.984Z,1022.92
2018-12-26T07:01:38.578Z,1022.93
2018-12-26T07:02:39.175Z,1022.90
2018-12-26T07:03:39.757Z,1022.90
2018-12-26T07:04:40.349Z,1022.89
2018-12-26T07:05:40.932Z,1022.92
2018-12-26T07:06:41.530Z,1022.91
2018-12-26T07:07:42.117Z,1022.91
2018-12-26T07:08:42.709Z,1022.96
2018-12-26T07:09:43.303Z,1022.99
2018-12-26T07:10:43.896Z,1023.04
2018-12-26T07:11:44.491Z,1023.01
2018-12-26T07:12:45.084Z,1023.01
2018-12-26T07:13:45.679Z,1023.05
2018-12-26T07:14:46.274Z,1023.05
2018-12-26T07:15:46.861Z,1023.08
2018-12-26T07:16:47.450Z,1023.08
2018-12-26T07:17:48.042Z,1023.09
2018-12-26T07:18:48.642Z,1023.12
2018-12-26T07:19:49.232Z,1023.09
2018-12-26T07:20:49.818Z,1023.11
2018-12-26T07:21:50.404Z,1023.19
2018-12-26T07:22:51.005Z,1023.14
2018-12-26T07:23:51.585Z,1023.15
2018-12-26T07:24:52.189Z,1023.17
2018-12-26T07:25:52.769Z,1023.17
2018-12-26T07:26:53.364Z,1023.18
2018-12-26T07:27:53.962Z,1023.21
2018-12-26T07:28:54.553Z,1023.19
2018-12-26T07:29:55.149Z,1023.22
2018-12-26T07:30:55.734Z,1023.19
2018-12-26T07:31:56.321Z,1023.20
2018-12-26T07:32:56.908Z,1023.19
2018-12-26T07:33:57.504Z,1023.19
2018-12-26T07:34:58.094Z,1023.23
2018-12-26T07:35:58.686Z,1023.24
2018-12-26T07:36:59.273Z,1023.19
2018-12-26T07:37:59.858Z,1023.20
2018-12-26T07:39:00.453Z,1023.23
2018-12-26T07:40:01.046Z,1023.22
2018-12-26T07:41:01.634Z,1023.21
2018-12-26T07:42:02.245Z,1023.28
2018-12-26T07:43:02.829Z,1023.25
2018-12-26T07:44:03.423Z,1023.26
2018-12-26T07:45:04.008Z,1023.24
2018-12-26T07:46:04.602Z,1023.29
2018-12-26T07:47:05.219Z,1023.31
2018-12-26T07:48:05.787Z,1023.29
2018-12-26T07:49:06.374Z,1023.37
2018-12-26T07:50:07.028Z,1023.33
2018-12-26T07:51:07.565Z,1023.37
2018-12-26T07:52:08.163Z,1023.36
2018-12-26T07:53:08.763Z,1023.36
2018-12-26T07:54:09.350Z,1023.38
2018-12-26T07:55:09.940Z,1023.35
2018-12-26T07:56:10.533Z,1023.39
2018-12-26T07:57:11.121Z,1023.37
2018-12-26T07:58:17.580Z,1023.38
2018-12-26T07:59:13.288Z,1023.39
2018-12-26T08:00:13.884Z,1023.34
2018-12-26T08:01:14.483Z,1023.37
2018-12-26T08:02:15.077Z,1023.34
2018-12-26T08:03:15.665Z,1023.40
2018-12-26T08:04:16.249Z,1023.35
2018-12-26T08:05:16.842Z,1023.34
2018-12-26T08:06:17.435Z,1023.37
2018-12-26T08:07:18.022Z,1023.37
2018-12-26T08:08:18.614Z,1023.40
2018-12-26T08:09:19.210Z,1023.39
2018-12-26T08:10:19.892Z,1023.39
2018-12-26T08:11:20.397Z,1023.41
2018-12-26T08:12:20.992Z,1023.43
2018-12-26T08:13:21.633Z,1023.39
2018-12-26T08:14:22.195Z,1023.38
2018-12-26T08:15:22.794Z,1023.36
2018-12-26T08:16:23.389Z,1023.37
2018-12-26T08:17:23.990Z,1023.39
2018-12-26T08:18:24.576Z,1023.38
2018-12-26T08:19:25.173Z,1023.37
2018-12-26T08:20:25.762Z,1023.33
2018-12-26T08:21:26.349Z,1023.35
2018-12-26T08:22:26.935Z,1023.35
2018-12-26T08:23:27.533Z,1023.32
2018-12-26T08:24:28.126Z,1023.30
2018-12-26T08:25:28.754Z,1023.32
2018-12-26T08:26:29.336Z,1023.38
2018-12-26T08:27:29.924Z,1023.35
2018-12-26T08:28:30.522Z,1023.38
2018-12-26T08:29:31.115Z,1023.40
2018-12-26T08:30:31.704Z,1023.41
2018-12-26T08:31:32.301Z,1023.42
2018-12-26T08:32:32.895Z,1023.42
2018-12-26T08:33:33.498Z,1023.45
2018-12-26T08:34:34.075Z,1023.43
2018-12-26T08:35:34.664Z,1023.47
2018-12-26T08:36:35.251Z,1023.47
2018-12-26T08:37:35.842Z,1023.44
2018-12-26T08:38:36.438Z,1023.46
2018-12-26T08:39:37.036Z,1023.44
2018-12-26T08:40:37.625Z,1023.48
2018-12-26T08:41:38.219Z,1023.48
2018-12-26T08:42:38.891Z,1023.51
2018-12-26T08:43:39.404Z,1023.53
2018-12-26T08:44:40.000Z,1023.54
2018-12-26T08:45:40.604Z,1023.56
2018-12-26T08:46:41.193Z,1023.58
2018-12-26T08:47:41.794Z,1023.56
2018-12-26T08:48:42.388Z,1023.50
2018-12-26T08:49:43.002Z,1023.51
2018-12-26T08:50:43.563Z,1023.52
2018-12-26T08:51:44.164Z,1023.52
2018-12-26T08:52:44.758Z,1023.55
2018-12-26T08:53:45.359Z,1023.53
2018-12-26T08:54:45.956Z,1023.53
2018-12-26T08:55:46.552Z,1023.54
2018-12-26T08:56:47.160Z,1023.56
2018-12-26T08:57:47.758Z,1023.56
2018-12-26T08:58:48.343Z,1023.56
2018-12-26T08:59:48.942Z,1023.55
2018-12-26T09:00:49.532Z,1023.53
2018-12-26T09:01:50.128Z,1023.57
2018-12-26T09:02:50.730Z,1023.63
2018-12-26T09:03:51.326Z,1023.63
2018-12-26T09:04:51.918Z,1023.62
2018-12-26T09:05:52.518Z,1023.61
2018-12-26T09:06:53.112Z,1023.66
2018-12-26T09:07:53.700Z,1023.65
2018-12-26T09:08:54.306Z,1023.63
2018-12-26T09:09:54.893Z,1023.65
2018-12-26T09:10:55.488Z,1023.65
2018-12-26T09:11:56.093Z,1023.57
2018-12-26T09:12:56.689Z,1023.62
2018-12-26T09:13:57.290Z,1023.55
2018-12-26T09:14:57.890Z,1023.57
2018-12-26T09:15:58.489Z,1023.55
2018-12-26T09:16:59.083Z,1023.57
2018-12-26T09:17:59.677Z,1023.63
2018-12-26T09:19:00.274Z,1023.59
2018-12-26T09:20:00.873Z,1023.64
2018-12-26T09:21:01.470Z,1023.58
2018-12-26T09:22:02.063Z,1023.60
2018-12-26T09:23:02.660Z,1023.59
2018-12-26T09:24:03.264Z,1023.63
2018-12-26T09:25:03.851Z,1023.60
2018-12-26T09:26:04.443Z,1023.62
2018-12-26T09:27:05.045Z,1023.66
2018-12-26T09:28:05.645Z,1023.64
2018-12-26T09:29:06.246Z,1023.61
2018-12-26T09:30:06.845Z,1023.58
2018-12-26T09:31:07.440Z,1023.61
2018-12-26T09:32:08.031Z,1023.60
2018-12-26T09:33:08.659Z,1023.58
2018-12-26T09:34:09.230Z,1023.52
2018-12-26T09:35:09.824Z,1023.52
2018-12-26T09:36:10.427Z,1023.52
2018-12-26T09:37:11.020Z,1023.51
2018-12-26T09:38:11.616Z,1023.48
2018-12-26T09:39:12.209Z,1023.43
2018-12-26T09:40:12.825Z,1023.43
2018-12-26T09:41:13.424Z,1023.20
2018-12-26T09:42:14.019Z,1023.25
2018-12-26T09:43:14.625Z,1023.28
2018-12-26T09:44:15.223Z,1023.21
2018-12-26T09:45:15.826Z,1023.23
2018-12-26T09:46:16.427Z,1023.24
2018-12-26T09:47:17.028Z,1023.22
2018-12-26T09:48:17.633Z,1023.25
2018-12-26T09:49:18.263Z,1023.25
2018-12-26T09:50:18.834Z,1023.26
2018-12-26T09:51:19.436Z,1023.28
2018-12-26T09:52:20.035Z,1023.23
2018-12-26T09:53:20.639Z,1023.23
2018-12-26T09:54:21.230Z,1023.20
2018-12-26T09:55:21.834Z,1023.16
2018-12-26T09:56:22.438Z,1023.22
2018-12-26T09:57:23.038Z,1023.20
2018-12-26T09:58:23.640Z,1023.25
2018-12-26T09:59:24.244Z,1023.24
2018-12-26T10:00:24.846Z,1023.18
2018-12-26T10:01:25.443Z,1023.22
2018-12-26T10:02:26.049Z,1023.18
2018-12-26T10:03:26.642Z,1023.17
2018-12-26T10:04:27.242Z,1023.19
2018-12-26T10:05:27.843Z,1023.18
2018-12-26T10:06:28.446Z,1023.17
2018-12-26T10:07:29.048Z,1023.14
2018-12-26T10:08:29.655Z,1023.18
2018-12-26T10:09:30.256Z,1023.13
2018-12-26T10:10:30.859Z,1023.17
2018-12-26T10:11:31.451Z,1023.17
2018-12-26T10:12:32.051Z,1023.16
2018-12-26T10:13:32.657Z,1023.17
2018-12-26T10:14:33.243Z,1023.13
2018-12-26T10:15:33.852Z,1023.12
2018-12-26T10:16:34.442Z,1023.14
2018-12-26T10:17:35.161Z,1023.14
2018-12-26T10:18:35.642Z,1023.12
2018-12-26T10:19:36.241Z,1023.10
2018-12-26T10:20:36.844Z,1023.12
2018-12-26T10:21:37.445Z,1023.10
2018-12-26T10:22:38.041Z,1023.10
2018-12-26T10:23:38.643Z,1023.11
2018-12-26T10:24:39.242Z,1023.08
2018-12-26T10:25:39.835Z,1023.08
2018-12-26T10:26:40.436Z,1023.04
2018-12-26T10:27:41.037Z,1023.01
2018-12-26T10:28:41.640Z,1023.05
2018-12-26T10:29:42.243Z,1022.99
2018-12-26T10:30:42.848Z,1023.03
2018-12-26T10:31:43.438Z,1023.05
2018-12-26T10:32:44.033Z,1022.98
2018-12-26T10:33:44.639Z,1023.00
2018-12-26T10:34:45.243Z,1023.00
2018-12-26T10:35:45.846Z,1022.95
2018-12-26T10:36:46.456Z,1022.97
2018-12-26T10:37:47.052Z,1022.97
2018-12-26T10:38:47.648Z,1022.99
2018-12-26T10:39:48.244Z,1022.93
2018-12-26T10:40:48.838Z,1022.92
2018-12-26T10:41:49.434Z,1022.92
2018-12-26T10:42:50.029Z,1022.94
2018-12-26T10:43:50.636Z,1022.92
2018-12-26T10:44:51.234Z,1022.89
2018-12-26T10:45:51.838Z,1022.90
2018-12-26T10:46:52.446Z,1022.86
2018-12-26T10:47:53.051Z,1022.91
2018-12-26T10:48:53.664Z,1022.87
2018-12-26T10:49:54.269Z,1022.85
2018-12-26T10:50:54.879Z,1022.82
2018-12-26T10:51:55.482Z,1022.85
2018-12-26T10:52:56.079Z,1022.85
2018-12-26T10:53:56.689Z,1022.84
2018-12-26T10:54:57.288Z,1022.84
2018-12-26T10:55:57.886Z,1022.77
2018-12-26T10:56:58.487Z,1022.75
2018-12-26T10:57:59.088Z,1022.75
2018-12-26T10:58:59.965Z,1022.80
2018-12-26T11:00:00.299Z,1022.74
2018-12-26T11:01:00.899Z,1022.77
2018-12-26T11:02:01.512Z,1022.78
2018-12-26T11:03:02.113Z,1022.74
2018-12-26T11:04:02.710Z,1022.74
2018-12-26T11:05:03.335Z,1022.77
2018-12-26T11:06:03.940Z,1022.74
2018-12-26T11:07:04.547Z,1022.73
2018-12-26T11:08:05.152Z,1022.70
2018-12-26T11:09:05.760Z,1022.70
2018-12-26T11:10:06.372Z,1022.70
2018-12-26T11:11:06.966Z,1022.70
2018-12-26T11:12:07.565Z,1022.67
2018-12-26T11:13:08.158Z,1022.63
2018-12-26T11:14:08.756Z,1022.61
2018-12-26T11:15:09.352Z,1022.58
2018-12-26T11:16:09.957Z,1022.61
2018-12-26T11:17:10.561Z,1022.58
2018-12-26T11:18:11.172Z,1022.56
2018-12-26T11:19:11.769Z,1022.53
2018-12-26T11:20:12.377Z,1022.50
2018-12-26T11:21:12.980Z,1022.47
2018-12-26T11:22:13.585Z,1022.47
2018-12-26T11:23:14.182Z,1022.42
2018-12-26T11:24:14.786Z,1022.46
2018-12-26T11:25:15.393Z,1022.43
2018-12-26T11:26:15.997Z,1022.45
2018-12-26T11:27:16.603Z,1022.45
2018-12-26T11:28:17.208Z,1022.43
2018-12-26T11:29:18.803Z,1022.41
2018-12-26T11:30:18.408Z,1022.46
2018-12-26T11:31:19.012Z,1022.46
2018-12-26T11:32:19.617Z,1022.41
2018-12-26T11:33:20.209Z,1022.40
2018-12-26T11:34:20.814Z,1022.39
2018-12-26T11:35:21.409Z,1022.41
2018-12-26T11:36:22.006Z,1022.39
2018-12-26T11:37:22.612Z,1022.46
2018-12-26T11:38:23.211Z,1022.39
2018-12-26T11:39:23.814Z,1022.37
2018-12-26T11:40:24.418Z,1022.33
2018-12-26T11:41:25.020Z,1022.34
2018-12-26T11:42:25.621Z,1022.30
2018-12-26T11:43:26.218Z,1022.34
2018-12-26T11:44:26.823Z,1022.34
2018-12-26T11:45:27.427Z,1022.35
2018-12-26T11:46:28.023Z,1022.34
2018-12-26T11:47:28.623Z,1022.34
2018-12-26T11:48:29.220Z,1022.34
2018-12-26T11:49:29.826Z,1022.32
2018-12-26T11:50:30.426Z,1022.30
2018-12-26T11:51:31.020Z,1022.28
2018-12-26T11:52:31.624Z,1022.26
2018-12-26T11:53:32.232Z,1022.23
2018-12-26T11:54:32.828Z,1022.24
2018-12-26T11:55:33.424Z,1022.24
2018-12-26T11:56:34.027Z,1022.23
2018-12-26T11:57:34.625Z,1022.26
2018-12-26T11:58:35.226Z,1022.25
2018-12-26T11:59:35.821Z,1022.20
2018-12-26T12:00:36.424Z,1022.25
2018-12-26T12:01:37.020Z,1022.20
2018-12-26T12:02:37.623Z,1022.21
2018-12-26T12:03:38.217Z,1022.18
2018-12-26T12:04:38.816Z,1022.16
2018-12-26T12:05:39.417Z,1022.19
2018-12-26T12:06:40.007Z,1022.18
2018-12-26T12:07:40.612Z,1022.12
2018-12-26T12:08:41.223Z,1022.17
2018-12-26T12:09:41.810Z,1022.14
2018-12-26T12:10:42.414Z,1022.14
2018-12-26T12:11:43.015Z,1022.13
2018-12-26T12:12:43.612Z,1022.16
2018-12-26T12:13:44.218Z,1022.15